createdAt,value
2019-03-24T00:00:33.668Z,6.50
2019-03-24T00:03:03.103Z,6.43
2019-03-24T00:05:32.553Z,6.39
2019-03-24T00:08:01.986Z,6.33
2019-03-24T00:10:31.432Z,6.33
2019-03-24T00:13:00.863Z,6.25
2019-03-24T00:15:30.315Z,6.20
2019-03-24T00:17:59.756Z,6.18
2019-03-24T00:20:29.514Z,6.26
2019-03-24T00:22:58.944Z,6.22
2019-03-24T00:25:28.396Z,6.11
2019-03-24T00:27:57.891Z,5.97
2019-03-24T00:30:27.329Z,6.01
2019-03-24T00:32:56.762Z,5.96
2019-03-24T00:35:26.200Z,5.90
2019-03-24T00:37:55.652Z,5.84
2019-03-24T00:40:25.363Z,5.90
2019-03-24T00:42:54.796Z,5.92
2019-03-24T00:45:24.235Z,5.88
2019-03-24T00:47:53.680Z,5.88
2019-03-24T00:50:23.111Z,5.89
2019-03-24T00:52:52.561Z,5.95
2019-03-24T00:55:21.993Z,6.00
2019-03-24T00:57:51.430Z,6.07
2019-03-24T01:00:42.502Z,5.92
2019-03-24T01:03:12.015Z,5.82
2019-03-24T01:05:41.521Z,5.82
2019-03-24T01:08:11.112Z,5.73
2019-03-24T01:10:40.644Z,5.70
2019-03-24T01:13:10.091Z,5.64
2019-03-24T01:15:47.390Z,5.58
2019-03-24T01:18:10.691Z,5.60
2019-03-24T01:20:40.132Z,5.63
2019-03-24T01:23:09.572Z,5.62
2019-03-24T01:25:39.011Z,5.66
2019-03-24T01:28:08.451Z,5.64
2019-03-24T01:30:37.881Z,5.62
2019-03-24T01:33:07.323Z,5.63
2019-03-24T01:35:36.774Z,5.56
2019-03-24T01:38:06.214Z,5.70
2019-03-24T01:40:35.649Z,5.54
2019-03-24T01:43:05.150Z,5.37
2019-03-24T01:45:34.591Z,5.32
2019-03-24T01:48:04.374Z,5.15
2019-03-24T01:50:34.069Z,5.12
2019-03-24T01:53:03.507Z,5.16
2019-03-24T01:55:32.940Z,5.13
2019-03-24T01:58:02.385Z,5.01
2019-03-24T02:00:31.819Z,4.99
2019-03-24T02:03:01.257Z,4.92
2019-03-24T02:05:30.717Z,4.78
2019-03-24T02:08:00.125Z,4.75
2019-03-24T02:10:29.563Z,4.65
2019-03-24T02:12:59.010Z,4.73
2019-03-24T02:15:28.448Z,4.88
2019-03-24T02:17:57.890Z,4.73
2019-03-24T02:20:27.334Z,4.67
2019-03-24T02:22:56.779Z,4.64
2019-03-24T02:25:26.205Z,4.69
2019-03-24T02:27:55.652Z,4.53
2019-03-24T02:30:25.091Z,4.62
2019-03-24T02:32:54.542Z,4.66
2019-03-24T02:35:24.274Z,4.76
2019-03-24T02:37:53.723Z,4.68
2019-03-24T02:40:23.166Z,4.67
2019-03-24T02:42:52.602Z,4.59
2019-03-24T02:45:22.033Z,4.62
2019-03-24T02:47:51.486Z,4.61
2019-03-24T02:50:21.484Z,4.78
2019-03-24T02:52:50.930Z,4.73
2019-03-24T02:55:20.359Z,4.53
2019-03-24T02:57:49.806Z,4.47
2019-03-24T03:00:19.569Z,4.53
2019-03-24T03:02:49.010Z,4.46
2019-03-24T03:05:18.442Z,4.40
2019-03-24T03:07:47.874Z,4.33
2019-03-24T03:10:17.717Z,4.18
2019-03-24T03:12:47.830Z,4.28
2019-03-24T03:15:17.546Z,4.27
2019-03-24T03:17:47.000Z,4.25
2019-03-24T03:20:16.690Z,4.25
2019-03-24T03:22:46.127Z,4.07
2019-03-24T03:25:15.715Z,4.04
2019-03-24T03:27:45.146Z,4.05
2019-03-24T03:30:14.661Z,4.16
2019-03-24T03:32:44.114Z,4.24
2019-03-24T03:35:13.675Z,4.12
2019-03-24T03:37:43.115Z,4.03
2019-03-24T03:40:12.684Z,3.95
2019-03-24T03:42:42.394Z,3.90
2019-03-24T03:45:14.351Z,3.86
2019-03-24T03:47:43.746Z,3.87
2019-03-24T03:50:13.494Z,3.82
2019-03-24T03:52:42.926Z,3.90
2019-03-24T03:55:12.449Z,3.87
2019-03-24T03:57:41.880Z,3.87
2019-03-24T04:00:12.013Z,3.93
2019-03-24T04:02:41.442Z,3.95
2019-03-24T04:05:11.134Z,3.92
2019-03-24T04:07:40.560Z,4.01
2019-03-24T04:10:10.339Z,4.14
2019-03-24T04:12:40.059Z,4.02
2019-03-24T04:15:10.133Z,4.16
2019-03-24T04:17:39.583Z,4.03
2019-03-24T04:20:09.087Z,3.90
2019-03-24T04:22:38.518Z,3.84
2019-03-24T04:25:08.101Z,3.70
2019-03-24T04:27:37.537Z,3.67
2019-03-24T04:30:08.709Z,3.58
2019-03-24T04:32:38.138Z,3.62
2019-03-24T04:35:10.461Z,3.57
2019-03-24T04:37:39.899Z,3.48
2019-03-24T04:40:09.677Z,3.47
2019-03-24T04:42:39.105Z,3.51
2019-03-24T04:45:09.365Z,3.50
2019-03-24T04:47:38.786Z,3.56
2019-03-24T04:50:09.143Z,3.69
2019-03-24T04:52:38.584Z,3.63
2019-03-24T04:55:08.160Z,3.59
2019-03-24T04:57:37.600Z,3.62
2019-03-24T05:00:09.719Z,3.64
2019-03-24T05:02:39.148Z,3.70
2019-03-24T05:05:08.827Z,3.56
2019-03-24T05:07:38.609Z,3.50
2019-03-24T05:10:25.894Z,3.39
2019-03-24T05:12:55.461Z,3.38
2019-03-24T05:15:25.388Z,3.33
2019-03-24T05:17:54.885Z,3.26
2019-03-24T05:20:24.559Z,3.20
2019-03-24T05:22:53.995Z,3.26
2019-03-24T05:25:23.805Z,3.44
2019-03-24T05:27:53.252Z,3.25
2019-03-24T05:30:22.711Z,3.12
2019-03-24T05:32:52.134Z,3.03
2019-03-24T05:35:21.583Z,3.02
2019-03-24T05:37:51.074Z,3.00
2019-03-24T05:40:20.524Z,2.96
2019-03-24T05:42:49.960Z,2.89
2019-03-24T05:45:19.406Z,2.86
2019-03-24T05:47:48.833Z,2.91
2019-03-24T05:50:18.282Z,2.84
2019-03-24T05:52:47.718Z,2.86
2019-03-24T05:55:17.168Z,2.94
2019-03-24T05:57:46.602Z,3.08
2019-03-24T06:00:16.192Z,3.22
2019-03-24T06:02:45.624Z,3.25
2019-03-24T06:05:15.068Z,3.34
2019-03-24T06:07:44.504Z,3.48
2019-03-24T06:10:14.096Z,3.59
2019-03-24T06:12:43.522Z,3.64
2019-03-24T06:15:13.376Z,3.59
2019-03-24T06:17:47.691Z,3.61
2019-03-24T06:20:14.041Z,3.62
2019-03-24T06:22:43.479Z,3.57
2019-03-24T06:25:12.922Z,3.69
2019-03-24T06:27:42.363Z,3.68
2019-03-24T06:30:11.912Z,3.67
2019-03-24T06:32:41.814Z,3.76
2019-03-24T06:35:11.379Z,3.75
2019-03-24T06:37:40.826Z,3.79
2019-03-24T06:40:10.699Z,3.78
2019-03-24T06:42:40.145Z,3.88
2019-03-24T06:45:09.985Z,3.86
2019-03-24T06:47:39.434Z,3.89
2019-03-24T06:50:09.675Z,3.96
2019-03-24T06:52:39.121Z,3.93
2019-03-24T06:55:08.697Z,4.02
2019-03-24T06:57:38.201Z,4.04
2019-03-24T07:00:09.746Z,4.04
2019-03-24T07:02:39.201Z,4.15
2019-03-24T07:05:09.151Z,4.28
2019-03-24T07:07:38.606Z,4.30
2019-03-24T07:10:09.857Z,4.38
2019-03-24T07:12:40.924Z,4.49
2019-03-24T07:15:14.026Z,4.58
2019-03-24T07:17:44.095Z,4.64
2019-03-24T07:20:14.952Z,4.70
2019-03-24T07:22:44.595Z,4.73
2019-03-24T07:25:14.080Z,4.84
2019-03-24T07:27:43.530Z,4.91
2019-03-24T07:30:13.559Z,4.93
2019-03-24T07:32:43.001Z,5.07
2019-03-24T07:35:12.431Z,5.16
2019-03-24T07:37:42.132Z,5.22
2019-03-24T07:40:12.002Z,5.29
2019-03-24T07:42:41.535Z,5.38
2019-03-24T07:45:11.345Z,5.45
2019-03-24T07:47:40.794Z,5.52
2019-03-24T07:50:11.031Z,5.60
2019-03-24T07:52:40.480Z,5.66
2019-03-24T07:55:10.259Z,5.73
2019-03-24T07:57:39.717Z,5.80
2019-03-24T08:00:11.457Z,5.89
2019-03-24T08:02:51.045Z,5.84
2019-03-24T08:05:16.765Z,6.03
2019-03-24T08:07:46.228Z,6.06
2019-03-24T08:10:15.661Z,6.12
2019-03-24T08:12:45.465Z,6.23
2019-03-24T08:15:15.100Z,6.31
2019-03-24T08:17:44.544Z,6.36
2019-03-24T08:20:14.066Z,6.46
2019-03-24T08:22:43.492Z,6.50
2019-03-24T08:25:13.018Z,6.58
2019-03-24T08:27:42.473Z,6.68
2019-03-24T08:30:12.570Z,6.73
2019-03-24T08:32:42.006Z,6.76
2019-03-24T08:35:11.439Z,6.80
2019-03-24T08:37:40.886Z,6.85
2019-03-24T08:40:10.458Z,6.92
2019-03-24T08:42:40.140Z,7.02
2019-03-24T08:45:14.290Z,7.07
2019-03-24T08:47:43.734Z,7.13
2019-03-24T08:50:13.235Z,7.28
2019-03-24T08:52:42.677Z,7.33
2019-03-24T08:55:12.114Z,7.55
2019-03-24T08:57:41.657Z,7.45
2019-03-24T09:00:11.228Z,7.53
2019-03-24T09:02:40.674Z,7.52
2019-03-24T09:05:10.183Z,7.58
2019-03-24T09:07:39.628Z,7.62
2019-03-24T09:10:09.430Z,7.61
2019-03-24T09:12:38.883Z,7.76
2019-03-24T09:15:08.662Z,8.00
2019-03-24T09:17:38.190Z,8.11
2019-03-24T09:20:08.344Z,8.07
2019-03-24T09:22:37.864Z,8.15
2019-03-24T09:25:09.508Z,8.28
2019-03-24T09:27:38.969Z,8.30
2019-03-24T09:30:18.749Z,8.45
2019-03-24T09:32:48.199Z,8.36
2019-03-24T09:35:17.883Z,8.43
2019-03-24T09:37:47.340Z,8.57
2019-03-24T09:40:27.182Z,8.62
2019-03-24T09:42:58.739Z,8.95
2019-03-24T09:45:29.291Z,8.93
2019-03-24T09:47:59.016Z,9.19
2019-03-24T09:50:28.826Z,9.46
2019-03-24T09:52:58.690Z,9.63
2019-03-24T09:55:28.134Z,9.72
2019-03-24T09:57:57.585Z,9.71
2019-03-24T10:00:27.155Z,9.98
2019-03-24T10:02:56.608Z,9.98
2019-03-24T10:05:26.097Z,10.10
2019-03-24T10:07:55.571Z,10.13
2019-03-24T10:10:24.993Z,10.12
2019-03-24T10:12:54.505Z,10.18
2019-03-24T10:15:23.955Z,10.40
2019-03-24T10:17:53.395Z,10.58
2019-03-24T10:20:22.846Z,10.72
2019-03-24T10:22:52.286Z,10.88
2019-03-24T10:25:21.743Z,10.75
2019-03-24T10:27:51.190Z,10.99
2019-03-24T10:30:20.643Z,11.33
2019-03-24T10:32:50.087Z,11.26
2019-03-24T10:35:19.538Z,11.27
2019-03-24T10:37:48.980Z,11.29
2019-03-24T10:40:28.113Z,11.71
2019-03-24T10:42:49.735Z,12.04
2019-03-24T10:45:19.184Z,11.94
2019-03-24T10:47:48.691Z,11.89
2019-03-24T10:50:18.144Z,11.96
2019-03-24T10:52:47.579Z,12.01
2019-03-24T10:55:17.026Z,12.24
2019-03-24T10:57:46.466Z,12.60
2019-03-24T11:00:19.454Z,12.65
2019-03-24T11:02:48.894Z,12.69
2019-03-24T11:05:18.349Z,12.87
2019-03-24T11:07:47.786Z,12.81
2019-03-24T11:10:17.511Z,12.87
2019-03-24T11:12:46.958Z,13.15
2019-03-24T11:15:16.415Z,13.10
2019-03-24T11:17:45.857Z,13.14
2019-03-24T11:20:15.306Z,13.20
2019-03-24T11:22:44.745Z,13.09
2019-03-24T11:25:14.278Z,13.26
2019-03-24T11:27:43.722Z,13.27
2019-03-24T11:30:16.111Z,13.35
2019-03-24T11:32:45.552Z,13.40
2019-03-24T11:35:15.013Z,13.30
2019-03-24T11:37:44.458Z,13.34
2019-03-24T11:40:14.545Z,13.34
2019-03-24T11:42:43.986Z,13.43
2019-03-24T11:45:14.539Z,13.53
2019-03-24T11:47:43.976Z,13.54
2019-03-24T11:50:13.562Z,13.56
2019-03-24T11:52:43.003Z,13.65
2019-03-24T11:55:13.005Z,13.63
2019-03-24T11:57:42.434Z,13.86
2019-03-24T12:00:15.830Z,13.91
2019-03-24T12:02:45.276Z,14.06
2019-03-24T12:05:15.061Z,14.19
2019-03-24T12:07:44.502Z,14.25
2019-03-24T12:10:14.591Z,14.35
2019-03-24T12:12:44.038Z,14.37
2019-03-24T12:15:15.567Z,14.40
2019-03-24T12:17:45.006Z,14.33
2019-03-24T12:20:14.462Z,14.39
2019-03-24T12:22:44.217Z,14.46
2019-03-24T12:25:15.456Z,14.47
2019-03-24T12:27:44.862Z,14.58
2019-03-24T12:30:15.399Z,14.51
2019-03-24T12:32:44.835Z,14.49
2019-03-24T12:35:14.357Z,14.59
2019-03-24T12:37:44.028Z,14.57
2019-03-24T12:40:13.817Z,14.51
2019-03-24T12:42:43.265Z,14.70
2019-03-24T12:45:15.634Z,14.65
2019-03-24T12:47:45.071Z,14.67
2019-03-24T12:50:15.740Z,14.81
2019-03-24T12:52:45.175Z,14.85
2019-03-24T12:55:14.691Z,14.87
2019-03-24T12:57:44.344Z,14.95
2019-03-24T13:00:16.204Z,15.05
2019-03-24T13:02:45.693Z,15.06
2019-03-24T13:05:15.203Z,15.11
2019-03-24T13:07:44.648Z,15.23
2019-03-24T13:10:14.166Z,15.24
2019-03-24T13:12:43.615Z,15.28
2019-03-24T13:15:13.296Z,15.29
2019-03-24T13:17:42.737Z,15.39
2019-03-24T13:20:22.608Z,15.46
2019-03-24T13:22:43.523Z,15.40
2019-03-24T13:25:13.327Z,15.58
2019-03-24T13:27:42.792Z,15.56
2019-03-24T13:30:12.661Z,15.57
2019-03-24T13:32:42.156Z,15.65
2019-03-24T13:35:11.620Z,15.79
2019-03-24T13:37:41.071Z,15.71
2019-03-24T13:40:10.507Z,15.70
2019-03-24T13:42:39.957Z,15.63
2019-03-24T13:45:09.536Z,15.74
2019-03-24T13:47:38.997Z,15.81
2019-03-24T13:50:08.590Z,15.78
2019-03-24T13:52:38.031Z,15.78
2019-03-24T13:55:08.054Z,15.91
2019-03-24T13:57:37.505Z,15.95
2019-03-24T14:00:09.750Z,16.07
2019-03-24T14:02:39.201Z,15.98
2019-03-24T14:05:08.713Z,15.96
2019-03-24T14:07:38.158Z,16.02
2019-03-24T14:10:08.443Z,15.93
2019-03-24T14:12:37.890Z,16.04
2019-03-24T14:15:09.537Z,15.98
2019-03-24T14:17:38.988Z,16.00
2019-03-24T14:20:08.764Z,16.06
2019-03-24T14:22:38.216Z,16.12
2019-03-24T14:25:08.896Z,16.23
2019-03-24T14:27:38.343Z,16.25
2019-03-24T14:30:09.316Z,16.24
2019-03-24T14:32:38.770Z,16.30
2019-03-24T14:35:08.550Z,16.39
2019-03-24T14:37:38.158Z,16.29
2019-03-24T14:40:09.240Z,16.24
2019-03-24T14:42:38.708Z,16.27
2019-03-24T14:45:09.281Z,16.27
2019-03-24T14:47:38.811Z,16.30
2019-03-24T14:50:08.486Z,16.31
2019-03-24T14:52:37.934Z,16.25
2019-03-24T14:55:07.515Z,16.26
2019-03-24T14:57:36.963Z,16.35
2019-03-24T15:00:08.684Z,16.32
2019-03-24T15:02:38.150Z,16.23
2019-03-24T15:05:09.176Z,16.27
2019-03-24T15:07:38.647Z,16.23
2019-03-24T15:10:09.003Z,16.24
2019-03-24T15:12:38.448Z,16.30
2019-03-24T15:15:08.193Z,16.28
2019-03-24T15:17:37.647Z,16.24
2019-03-24T15:20:08.057Z,16.07
2019-03-24T15:22:37.520Z,16.11
2019-03-24T15:25:08.091Z,16.01
2019-03-24T15:27:37.552Z,16.01
2019-03-24T15:30:08.603Z,16.06
2019-03-24T15:32:38.051Z,16.07
2019-03-24T15:35:08.852Z,16.02
2019-03-24T15:37:38.297Z,16.07
2019-03-24T15:40:09.371Z,16.16
2019-03-24T15:42:38.841Z,16.25
2019-03-24T15:45:09.173Z,16.23
2019-03-24T15:47:38.611Z,16.17
2019-03-24T15:50:09.361Z,16.67
2019-03-24T15:52:38.980Z,18.05
2019-03-24T15:55:09.132Z,19.09
2019-03-24T15:57:38.573Z,19.69
2019-03-24T16:00:10.573Z,20.14
2019-03-24T16:02:40.201Z,20.28
2019-03-24T16:05:09.888Z,20.45
2019-03-24T16:07:39.394Z,20.92
2019-03-24T16:10:10.872Z,21.04
2019-03-24T16:12:40.318Z,21.23
2019-03-24T16:15:10.902Z,21.28
2019-03-24T16:17:40.349Z,21.11
2019-03-24T16:20:10.400Z,21.01
2019-03-24T16:22:39.849Z,20.74
2019-03-24T16:25:09.302Z,20.55
2019-03-24T16:27:38.742Z,21.15
2019-03-24T16:30:09.898Z,21.00
2019-03-24T16:32:39.348Z,20.50
2019-03-24T16:35:09.046Z,20.49
2019-03-24T16:37:38.555Z,20.37
2019-03-24T16:40:10.089Z,19.88
2019-03-24T16:42:39.535Z,19.22
2019-03-24T16:45:09.328Z,19.00
2019-03-24T16:47:38.767Z,18.44
2019-03-24T16:50:09.060Z,18.20
2019-03-24T16:52:38.500Z,17.87
2019-03-24T16:55:08.221Z,17.15
2019-03-24T16:57:37.853Z,16.64
2019-03-24T17:00:10.343Z,16.21
2019-03-24T17:02:40.444Z,15.85
2019-03-24T17:05:11.214Z,15.73
2019-03-24T17:07:40.675Z,15.45
2019-03-24T17:10:10.526Z,15.32
2019-03-24T17:12:39.973Z,14.96
2019-03-24T17:15:10.132Z,14.78
2019-03-24T17:17:40.219Z,14.64
2019-03-24T17:20:10.478Z,14.53
2019-03-24T17:22:39.918Z,14.42
2019-03-24T17:25:10.375Z,14.35
2019-03-24T17:27:39.832Z,14.23
2019-03-24T17:30:11.840Z,14.10
2019-03-24T17:32:41.285Z,13.97
2019-03-24T17:35:10.980Z,13.91
2019-03-24T17:37:40.416Z,13.93
2019-03-24T17:40:12.410Z,13.89
2019-03-24T17:42:41.701Z,13.75
2019-03-24T17:45:12.720Z,13.74
2019-03-24T17:47:42.165Z,13.67
2019-03-24T17:50:12.750Z,13.67
2019-03-24T17:52:42.244Z,13.58
2019-03-24T17:55:12.104Z,13.49
2019-03-24T17:57:41.622Z,13.45
2019-03-24T18:00:16.286Z,13.39
2019-03-24T18:02:45.736Z,13.33
2019-03-24T18:05:15.530Z,13.26
2019-03-24T18:07:44.964Z,13.20
2019-03-24T18:10:14.653Z,13.15
2019-03-24T18:12:44.099Z,13.06
2019-03-24T18:15:15.528Z,13.04
2019-03-24T18:17:44.980Z,13.06
2019-03-24T18:20:19.379Z,12.99
2019-03-24T18:22:48.831Z,12.89
2019-03-24T18:25:18.291Z,12.86
2019-03-24T18:27:47.726Z,12.84
2019-03-24T18:30:17.620Z,12.80
2019-03-24T18:32:47.058Z,12.75
2019-03-24T18:35:16.887Z,12.72
2019-03-24T18:37:46.323Z,12.65
2019-03-24T18:40:16.118Z,12.63
2019-03-24T18:42:45.561Z,12.58
2019-03-24T18:45:15.546Z,12.53
2019-03-24T18:47:44.986Z,12.48
2019-03-24T18:50:14.951Z,12.42
2019-03-24T18:52:44.403Z,12.37
2019-03-24T18:55:15.907Z,12.33
2019-03-24T18:57:45.349Z,12.29
2019-03-24T19:00:16.105Z,12.25
2019-03-24T19:02:45.565Z,12.19
2019-03-24T19:05:15.146Z,12.17
2019-03-24T19:07:44.751Z,12.11
2019-03-24T19:10:17.240Z,12.10
2019-03-24T19:12:46.697Z,12.03
2019-03-24T19:15:16.977Z,12.03
2019-03-24T19:17:46.565Z,12.01
2019-03-24T19:20:16.340Z,12.02
2019-03-24T19:22:45.807Z,12.02
2019-03-24T19:25:15.764Z,12.04
2019-03-24T19:27:45.212Z,12.03
2019-03-24T19:30:17.354Z,11.92
2019-03-24T19:32:47.082Z,11.89
2019-03-24T19:35:16.850Z,11.90
2019-03-24T19:37:47.591Z,11.89
2019-03-24T19:40:29.210Z,11.85
2019-03-24T19:42:58.735Z,11.81
2019-03-24T19:45:28.540Z,11.76
2019-03-24T19:47:57.983Z,11.74
2019-03-24T19:50:27.810Z,11.71
2019-03-24T19:52:57.261Z,11.74
2019-03-24T19:55:26.710Z,11.73
2019-03-24T19:57:56.154Z,11.69
2019-03-24T20:00:26.364Z,11.67
2019-03-24T20:02:55.827Z,11.59
2019-03-24T20:05:26.975Z,11.57
2019-03-24T20:07:56.511Z,11.52
2019-03-24T20:10:25.958Z,11.50
2019-03-24T20:12:55.421Z,11.40
2019-03-24T20:15:24.933Z,11.40
2019-03-24T20:17:54.712Z,11.37
2019-03-24T20:20:24.158Z,11.32
2019-03-24T20:22:56.902Z,11.25
2019-03-24T20:25:24.770Z,11.23
2019-03-24T20:27:54.222Z,11.23
2019-03-24T20:30:23.663Z,11.16
2019-03-24T20:32:53.110Z,11.08
2019-03-24T20:35:22.557Z,11.09
2019-03-24T20:37:52.003Z,11.06
2019-03-24T20:40:21.491Z,11.01
2019-03-24T20:42:50.893Z,11.00
2019-03-24T20:45:20.331Z,11.00
2019-03-24T20:47:49.790Z,10.93
2019-03-24T20:50:19.507Z,10.91
2019-03-24T20:52:48.965Z,10.95
2019-03-24T20:55:18.396Z,10.92
2019-03-24T20:57:47.856Z,10.96
2019-03-24T21:00:22.003Z,10.91
2019-03-24T21:02:51.459Z,10.94
2019-03-24T21:05:20.911Z,10.99
2019-03-24T21:07:50.346Z,10.99
2019-03-24T21:10:19.786Z,11.04
2019-03-24T21:12:49.234Z,10.96
2019-03-24T21:15:18.676Z,10.87
2019-03-24T21:17:48.127Z,10.79
2019-03-24T21:20:17.571Z,10.79
2019-03-24T21:22:47.025Z,10.68
2019-03-24T21:25:19.393Z,10.61
2019-03-24T21:27:48.849Z,10.51
2019-03-24T21:30:25.744Z,10.52
2019-03-24T21:32:55.193Z,10.45
2019-03-24T21:35:24.632Z,10.41
2019-03-24T21:37:54.085Z,10.39
2019-03-24T21:40:23.526Z,10.36
2019-03-24T21:42:52.983Z,10.36
2019-03-24T21:45:22.700Z,10.38
2019-03-24T21:47:52.155Z,10.40
2019-03-24T21:50:21.596Z,10.47
2019-03-24T21:52:51.038Z,10.61
2019-03-24T21:55:20.476Z,10.69
2019-03-24T21:57:57.406Z,10.75
2019-03-24T22:00:33.213Z,10.81
2019-03-24T22:03:02.738Z,10.90
2019-03-24T22:05:32.169Z,10.91
2019-03-24T22:08:01.618Z,10.99
2019-03-24T22:10:31.062Z,10.97
2019-03-24T22:13:00.509Z,11.01
2019-03-24T22:15:29.948Z,11.03
2019-03-24T22:17:59.400Z,11.03
2019-03-24T22:20:28.841Z,11.04
2019-03-24T22:22:58.291Z,10.98
2019-03-24T22:25:27.733Z,11.00
2019-03-24T22:27:57.170Z,11.02
2019-03-24T22:30:29.121Z,11.01
2019-03-24T22:32:57.794Z,11.01
2019-03-24T22:35:27.254Z,11.00
2019-03-24T22:37:56.690Z,10.93
2019-03-24T22:40:26.131Z,10.94
2019-03-24T22:42:55.580Z,10.89
2019-03-24T22:45:25.085Z,10.89
2019-03-24T22:48:19.588Z,10.88
2019-03-24T22:50:49.024Z,10.88
2019-03-24T22:53:18.472Z,10.87
2019-03-24T22:55:47.912Z,10.87
2019-03-24T22:58:17.368Z,10.87
2019-03-24T23:00:48.454Z,10.84
2019-03-24T23:03:17.909Z,10.84
2019-03-24T23:05:47.358Z,10.87
2019-03-24T23:08:16.812Z,10.83
2019-03-24T23:10:46.278Z,10.83
2019-03-24T23:13:15.734Z,10.76
2019-03-24T23:15:45.186Z,10.74
2019-03-24T23:18:14.675Z,10.78
2019-03-24T23:20:44.117Z,10.72
2019-03-24T23:23:13.549Z,10.65
2019-03-24T23:25:43.000Z,10.65
2019-03-24T23:28:12.831Z,10.60
2019-03-24T23:30:42.266Z,10.61
2019-03-24T23:33:11.738Z,10.52
2019-03-24T23:35:41.168Z,10.53
2019-03-24T23:38:10.598Z,10.49
2019-03-24T23:40:40.047Z,10.50
2019-03-24T23:43:09.485Z,10.46
2019-03-24T23:45:38.946Z,10.45
2019-03-24T23:48:08.390Z,10.41
2019-03-24T23:50:37.840Z,10.34
2019-03-24T23:53:07.681Z,10.36
2019-03-24T23:55:37.134Z,10.37
2019-03-24T23:58:06.579Z,10.41
